sensor_id;sensor_type;location;lat;lon;timestamp;pressure;altitude;pressure_sealevel;temperature;humidity
18167;BME280;9208;42.688;23.404;2023-06-10T00:01:27;95080.25;;;19.93;100.00
18167;BME280;9208;42.688;23.404;2023-06-10T00:03:53;95090.09;;;19.94;100.00
18167;BME280;9208;42.688;23.404;2023-06-10T00:06:19;95086.44;;;19.99;100.00
18167;BME280;9208;42.688;23.404;2023-06-10T00:08:47;95091.09;;;20.04;100.00
18167;BME280;9208;42.688;23.404;2023-06-10T00:11:12;95087.81;;;20.13;100.00
18167;BME280;9208;42.688;23.404;2023-06-10T00:13:38;95090.47;;;20.18;100.00
18167;BME280;9208;42.688;23.404;2023-06-10T00:16:03;95088.22;;;20.17;100.00
18167;BME280;9208;42.688;23.404;2023-06-10T00:18:29;95089.53;;;20.16;100.00
18167;BME280;9208;42.688;23.404;2023-06-10T00:20:57;95085.59;;;20.11;100.00
18167;BME280;9208;42.688;23.404;2023-06-10T00:23:28;95081.50;;;20.12;100.00
18167;BME280;9208;42.688;23.404;2023-06-10T00:25:58;95074.41;;;20.04;100.00
18167;BME280;9208;42.688;23.404;2023-06-10T00:28:24;95081.00;;;19.93;100.00
18167;BME280;9208;42.688;23.404;2023-06-10T00:30:50;95076.19;;;19.94;100.00
18167;BME280;9208;42.688;23.404;2023-06-10T00:33:16;95076.53;;;19.90;100.00
18167;BME280;9208;42.688;23.404;2023-06-10T00:35:41;95079.81;;;19.81;100.00
18167;BME280;9208;42.688;23.404;2023-06-10T00:38:07;95085.72;;;19.78;100.00
18167;BME280;9208;42.688;23.404;2023-06-10T00:40:38;95091.78;;;19.69;100.00
18167;BME280;9208;42.688;23.404;2023-06-10T00:43:04;95086.72;;;19.60;100.00
18167;BME280;9208;42.688;23.404;2023-06-10T00:45:29;95082.59;;;19.53;100.00
18167;BME280;9208;42.688;23.404;2023-06-10T00:47:55;95090.41;;;19.55;100.00
18167;BME280;9208;42.688;23.404;2023-06-10T00:50:21;95087.44;;;19.53;100.00
18167;BME280;9208;42.688;23.404;2023-06-10T00:52:46;95082.59;;;19.53;100.00
18167;BME280;9208;42.688;23.404;2023-06-10T00:55:15;95083.91;;;19.52;100.00
18167;BME280;9208;42.688;23.404;2023-06-10T00:57:41;95088.44;;;19.63;100.00
18167;BME280;9208;42.688;23.404;2023-06-10T01:00:10;95086.94;;;19.62;100.00
18167;BME280;9208;42.688;23.404;2023-06-10T01:02:36;95087.66;;;19.62;100.00
18167;BME280;9208;42.688;23.404;2023-06-10T01:05:01;95085.97;;;19.59;100.00
18167;BME280;9208;42.688;23.404;2023-06-10T01:10:33;95081.38;;;19.62;100.00
18167;BME280;9208;42.688;23.404;2023-06-10T01:13:07;95097.56;;;19.71;100.00
18167;BME280;9208;42.688;23.404;2023-06-10T01:15:34;95092.38;;;19.75;100.00
18167;BME280;9208;42.688;23.404;2023-06-10T01:18:10;95103.38;;;19.80;100.00
18167;BME280;9208;42.688;23.404;2023-06-10T01:20:41;95102.47;;;19.85;100.00
18167;BME280;9208;42.688;23.404;2023-06-10T01:23:09;95090.41;;;19.83;100.00
18167;BME280;9208;42.688;23.404;2023-06-10T01:25:40;95093.94;;;19.83;100.00
18167;BME280;9208;42.688;23.404;2023-06-10T01:31:07;95096.91;;;19.85;100.00
18167;BME280;9208;42.688;23.404;2023-06-10T01:33:39;95089.50;;;19.88;100.00
18167;BME280;9208;42.688;23.404;2023-06-10T01:36:07;95081.91;;;19.88;100.00
18167;BME280;9208;42.688;23.404;2023-06-10T01:38:37;95094.53;;;19.89;100.00
18167;BME280;9208;42.688;23.404;2023-06-10T01:41:05;95089.72;;;19.90;100.00
18167;BME280;9208;42.688;23.404;2023-06-10T01:43:33;95091.38;;;19.93;100.00
18167;BME280;9208;42.688;23.404;2023-06-10T01:45:59;95091.00;;;19.89;100.00
18167;BME280;9208;42.688;23.404;2023-06-10T01:48:25;95095.50;;;19.99;100.00
18167;BME280;9208;42.688;23.404;2023-06-10T01:50:53;95089.00;;;19.97;100.00
18167;BME280;9208;42.688;23.404;2023-06-10T01:53:21;95092.19;;;20.01;100.00
18167;BME280;9208;42.688;23.404;2023-06-10T01:55:46;95088.06;;;19.94;100.00
18167;BME280;9208;42.688;23.404;2023-06-10T01:58:11;95086.97;;;19.97;100.00
18167;BME280;9208;42.688;23.404;2023-06-10T02:00:37;95084.03;;;20.03;100.00
18167;BME280;9208;42.688;23.404;2023-06-10T02:03:02;95082.88;;;19.98;100.00
18167;BME280;9208;42.688;23.404;2023-06-10T02:05:28;95079.16;;;19.96;100.00
18167;BME280;9208;42.688;23.404;2023-06-10T02:07:53;95082.50;;;19.94;100.00
18167;BME280;9208;42.688;23.404;2023-06-10T02:10:19;95074.47;;;19.83;100.00
18167;BME280;9208;42.688;23.404;2023-06-10T02:12:44;95077.94;;;19.76;100.00
18167;BME280;9208;42.688;23.404;2023-06-10T02:15:09;95081.25;;;19.75;100.00
18167;BME280;9208;42.688;23.404;2023-06-10T02:17:35;95072.72;;;19.73;100.00
18167;BME280;9208;42.688;23.404;2023-06-10T02:20:00;95075.31;;;19.71;100.00
18167;BME280;9208;42.688;23.404;2023-06-10T02:22:31;95072.13;;;19.67;100.00
18167;BME280;9208;42.688;23.404;2023-06-10T02:24:57;95074.56;;;19.70;100.00
18167;BME280;9208;42.688;23.404;2023-06-10T02:27:22;95066.22;;;19.70;100.00
18167;BME280;9208;42.688;23.404;2023-06-10T02:29:47;95075.31;;;19.71;100.00
18167;BME280;9208;42.688;23.404;2023-06-10T02:32:13;95066.63;;;19.74;100.00
18167;BME280;9208;42.688;23.404;2023-06-10T02:34:38;95059.75;;;19.75;100.00
18167;BME280;9208;42.688;23.404;2023-06-10T02:37:04;95056.97;;;19.75;100.00
18167;BME280;9208;42.688;23.404;2023-06-10T02:39:30;95049.72;;;19.72;100.00
18167;BME280;9208;42.688;23.404;2023-06-10T02:41:55;95059.22;;;19.77;100.00
18167;BME280;9208;42.688;23.404;2023-06-10T02:44:21;95056.06;;;19.80;100.00
18167;BME280;9208;42.688;23.404;2023-06-10T02:46:46;95058.84;;;19.80;100.00
18167;BME280;9208;42.688;23.404;2023-06-10T02:49:12;95055.19;;;19.85;100.00
18167;BME280;9208;42.688;23.404;2023-06-10T02:51:38;95047.78;;;19.88;100.00
18167;BME280;9208;42.688;23.404;2023-06-10T02:54:04;95049.63;;;19.85;100.00
18167;BME280;9208;42.688;23.404;2023-06-10T02:56:29;95047.03;;;19.87;100.00
18167;BME280;9208;42.688;23.404;2023-06-10T02:58:55;95040.16;;;19.81;100.00
18167;BME280;9208;42.688;23.404;2023-06-10T03:01:21;95042.38;;;19.82;100.00
18167;BME280;9208;42.688;23.404;2023-06-10T03:03:46;95045.72;;;19.81;100.00
18167;BME280;9208;42.688;23.404;2023-06-10T03:06:12;95039.38;;;19.80;100.00
18167;BME280;9208;42.688;23.404;2023-06-10T03:08:39;95045.16;;;19.82;100.00
18167;BME280;9208;42.688;23.404;2023-06-10T03:11:04;95053.13;;;19.78;100.00
18167;BME280;9208;42.688;23.404;2023-06-10T03:13:29;95048.63;;;19.75;100.00
18167;BME280;9208;42.688;23.404;2023-06-10T03:15:55;95055.28;;;19.72;100.00
18167;BME280;9208;42.688;23.404;2023-06-10T03:18:20;95041.72;;;19.69;100.00
18167;BME280;9208;42.688;23.404;2023-06-10T03:20:48;95054.50;;;19.64;100.00
18167;BME280;9208;42.688;23.404;2023-06-10T03:23:13;95052.66;;;19.67;100.00
18167;BME280;9208;42.688;23.404;2023-06-10T03:25:39;95058.22;;;19.67;100.00
18167;BME280;9208;42.688;23.404;2023-06-10T03:28:04;95067.84;;;19.66;100.00
18167;BME280;9208;42.688;23.404;2023-06-10T03:30:29;95068.41;;;19.64;100.00
18167;BME280;9208;42.688;23.404;2023-06-10T03:32:55;95071.88;;;19.57;100.00
18167;BME280;9208;42.688;23.404;2023-06-10T03:35:20;95077.94;;;19.48;100.00
18167;BME280;9208;42.688;23.404;2023-06-10T03:37:46;95081.78;;;19.45;100.00
18167;BME280;9208;42.688;23.404;2023-06-10T03:40:11;95087.75;;;19.49;100.00
18167;BME280;9208;42.688;23.404;2023-06-10T03:42:37;95081.25;;;19.47;100.00
18167;BME280;9208;42.688;23.404;2023-06-10T03:45:03;95089.00;;;19.41;100.00
18167;BME280;9208;42.688;23.404;2023-06-10T03:47:37;95081.06;;;19.45;100.00
18167;BME280;9208;42.688;23.404;2023-06-10T03:50:05;95081.47;;;19.49;100.00
18167;BME280;9208;42.688;23.404;2023-06-10T03:52:31;95077.75;;;19.46;100.00
18167;BME280;9208;42.688;23.404;2023-06-10T03:54:57;95075.16;;;19.48;100.00
18167;BME280;9208;42.688;23.404;2023-06-10T03:57:22;95074.75;;;19.44;100.00
18167;BME280;9208;42.688;23.404;2023-06-10T03:59:48;95083.31;;;19.46;100.00
18167;BME280;9208;42.688;23.404;2023-06-10T04:02:13;95073.25;;;19.43;100.00
18167;BME280;9208;42.688;23.404;2023-06-10T04:04:39;95068.25;;;19.42;100.00
18167;BME280;9208;42.688;23.404;2023-06-10T04:07:05;95077.66;;;19.39;100.00
18167;BME280;9208;42.688;23.404;2023-06-10T04:09:30;95079.72;;;19.38;100.00
18167;BME280;9208;42.688;23.404;2023-06-10T04:11:56;95083.44;;;19.41;100.00
18167;BME280;9208;42.688;23.404;2023-06-10T04:14:22;95084.16;;;19.41;100.00
18167;BME280;9208;42.688;23.404;2023-06-10T04:16:48;95082.16;;;19.42;100.00
18167;BME280;9208;42.688;23.404;2023-06-10T04:19:13;95087.84;;;19.36;100.00
18167;BME280;9208;42.688;23.404;2023-06-10T04:21:39;95088.41;;;19.35;100.00
18167;BME280;9208;42.688;23.404;2023-06-10T04:24:04;95090.28;;;19.40;100.00
18167;BME280;9208;42.688;23.404;2023-06-10T04:26:30;95092.31;;;19.39;100.00
18167;BME280;9208;42.688;23.404;2023-06-10T04:28:55;95086.56;;;19.37;100.00
18167;BME280;9208;42.688;23.404;2023-06-10T04:31:21;95094.34;;;19.39;100.00
18167;BME280;9208;42.688;23.404;2023-06-10T04:33:46;95091.25;;;19.42;100.00
18167;BME280;9208;42.688;23.404;2023-06-10T04:36:11;95096.75;;;19.35;100.00
18167;BME280;9208;42.688;23.404;2023-06-10T04:38:37;95085.00;;;19.29;100.00
18167;BME280;9208;42.688;23.404;2023-06-10T04:41:03;95087.78;;;19.29;100.00
18167;BME280;9208;42.688;23.404;2023-06-10T04:43:29;95085.06;;;19.36;100.00
18167;BME280;9208;42.688;23.404;2023-06-10T04:45:55;95093.97;;;19.35;100.00
18167;BME280;9208;42.688;23.404;2023-06-10T04:48:20;95091.19;;;19.35;100.00
18167;BME280;9208;42.688;23.404;2023-06-10T04:50:46;95072.75;;;19.24;100.00
18167;BME280;9208;42.688;23.404;2023-06-10T04:53:12;95085.41;;;19.33;100.00
18167;BME280;9208;42.688;23.404;2023-06-10T04:55:37;95081.16;;;19.32;100.00
18167;BME280;9208;42.688;23.404;2023-06-10T04:58:02;95086.69;;;19.32;100.00
18167;BME280;9208;42.688;23.404;2023-06-10T05:00:28;95082.75;;;19.27;100.00
18167;BME280;9208;42.688;23.404;2023-06-10T05:02:54;95078.72;;;19.28;100.00
18167;BME280;9208;42.688;23.404;2023-06-10T05:05:21;95081.69;;;19.30;100.00
18167;BME280;9208;42.688;23.404;2023-06-10T05:07:46;95085.88;;;19.24;100.00
18167;BME280;9208;42.688;23.404;2023-06-10T05:10:12;95087.06;;;19.28;100.00
18167;BME280;9208;42.688;23.404;2023-06-10T05:12:40;95091.31;;;19.29;100.00
18167;BME280;9208;42.688;23.404;2023-06-10T05:15:07;95086.41;;;19.22;100.00
18167;BME280;9208;42.688;23.404;2023-06-10T05:17:33;95079.88;;;19.20;100.00
18167;BME280;9208;42.688;23.404;2023-06-10T05:20:00;95082.75;;;19.27;100.00
18167;BME280;9208;42.688;23.404;2023-06-10T05:22:25;95075.94;;;19.28;100.00
18167;BME280;9208;42.688;23.404;2023-06-10T05:24:54;95069.25;;;19.31;100.00
18167;BME280;9208;42.688;23.404;2023-06-10T05:27:19;95075.44;;;19.37;100.00
18167;BME280;9208;42.688;23.404;2023-06-10T05:29:45;95081.19;;;19.39;100.00
18167;BME280;9208;42.688;23.404;2023-06-10T05:32:10;95079.91;;;19.40;100.00
18167;BME280;9208;42.688;23.404;2023-06-10T05:34:36;95080.31;;;19.44;100.00
18167;BME280;9208;42.688;23.404;2023-06-10T05:37:02;95084.78;;;19.47;100.00
18167;BME280;9208;42.688;23.404;2023-06-10T05:39:27;95081.88;;;19.53;100.00
18167;BME280;9208;42.688;23.404;2023-06-10T05:41:53;95085.19;;;19.51;100.00
18167;BME280;9208;42.688;23.404;2023-06-10T05:44:18;95090.41;;;19.55;100.00
18167;BME280;9208;42.688;23.404;2023-06-10T05:46:43;95088.97;;;19.61;100.00
18167;BME280;9208;42.688;23.404;2023-06-10T05:49:09;95093.03;;;19.60;100.00
18167;BME280;9208;42.688;23.404;2023-06-10T05:51:37;95092.69;;;19.64;100.00
18167;BME280;9208;42.688;23.404;2023-06-10T05:54:03;95093.13;;;19.75;100.00
18167;BME280;9208;42.688;23.404;2023-06-10T05:56:29;95095.03;;;19.80;100.00
18167;BME280;9208;42.688;23.404;2023-06-10T05:58:54;95098.00;;;19.82;100.00
18167;BME280;9208;42.688;23.404;2023-06-10T06:01:22;95089.16;;;19.91;100.00
18167;BME280;9208;42.688;23.404;2023-06-10T06:03:48;95100.47;;;19.93;100.00
18167;BME280;9208;42.688;23.404;2023-06-10T06:06:13;95099.78;;;20.00;100.00
18167;BME280;9208;42.688;23.404;2023-06-10T06:08:39;95095.50;;;19.99;100.00
18167;BME280;9208;42.688;23.404;2023-06-10T06:11:04;95096.66;;;20.04;100.00
18167;BME280;9208;42.688;23.404;2023-06-10T06:13:30;95101.53;;;20.11;100.00
18167;BME280;9208;42.688;23.404;2023-06-10T06:15:55;95098.03;;;20.10;100.00
18167;BME280;9208;42.688;23.404;2023-06-10T06:18:20;95103.63;;;20.18;100.00
18167;BME280;9208;42.688;23.404;2023-06-10T06:20:46;95094.72;;;20.19;100.00
18167;BME280;9208;42.688;23.404;2023-06-10T06:23:11;95092.34;;;20.23;100.00
18167;BME280;9208;42.688;23.404;2023-06-10T06:25:37;95089.34;;;20.21;100.00
18167;BME280;9208;42.688;23.404;2023-06-10T06:28:06;95086.78;;;20.23;100.00
18167;BME280;9208;42.688;23.404;2023-06-10T06:30:31;95100.56;;;20.36;100.00
18167;BME280;9208;42.688;23.404;2023-06-10T06:32:57;95091.47;;;20.36;100.00
18167;BME280;9208;42.688;23.404;2023-06-10T06:35:22;95099.84;;;20.43;100.00
18167;BME280;9208;42.688;23.404;2023-06-10T06:37:47;95091.31;;;20.49;100.00
18167;BME280;9208;42.688;23.404;2023-06-10T06:40:16;95089.47;;;20.51;100.00
18167;BME280;9208;42.688;23.404;2023-06-10T06:42:44;95095.28;;;20.61;100.00
18167;BME280;9208;42.688;23.404;2023-06-10T06:45:10;95091.19;;;20.62;100.00
18167;BME280;9208;42.688;23.404;2023-06-10T06:47:35;95094.16;;;20.71;100.00
18167;BME280;9208;42.688;23.404;2023-06-10T06:50:01;95093.06;;;20.67;100.00
18167;BME280;9208;42.688;23.404;2023-06-10T06:52:27;95084.34;;;20.70;100.00
18167;BME280;9208;42.688;23.404;2023-06-10T06:54:53;95094.00;;;20.77;100.00
18167;BME280;9208;42.688;23.404;2023-06-10T06:57:19;95081.94;;;20.82;100.00
18167;BME280;9208;42.688;23.404;2023-06-10T06:59:44;95083.25;;;20.88;100.00
18167;BME280;9208;42.688;23.404;2023-06-10T07:02:10;95080.31;;;20.86;100.00
18167;BME280;9208;42.688;23.404;2023-06-10T07:04:36;95075.53;;;20.94;100.00
18167;BME280;9208;42.688;23.404;2023-06-10T07:07:02;95079.97;;;20.97;100.00
18167;BME280;9208;42.688;23.404;2023-06-10T07:09:28;95077.00;;;21.03;100.00
18167;BME280;9208;42.688;23.404;2023-06-10T07:11:53;95078.13;;;21.07;100.00
18167;BME280;9208;42.688;23.404;2023-06-10T07:14:18;95078.50;;;21.11;100.00
18167;BME280;9208;42.688;23.404;2023-06-10T07:16:44;95081.28;;;21.11;100.00
18167;BME280;9208;42.688;23.404;2023-06-10T07:19:11;95084.06;;;21.11;100.00
18167;BME280;9208;42.688;23.404;2023-06-10T07:21:36;95077.94;;;21.13;100.00
18167;BME280;9208;42.688;23.404;2023-06-10T07:24:03;95076.09;;;21.15;100.00
18167;BME280;9208;42.688;23.404;2023-06-10T07:26:28;95078.16;;;21.15;100.00
18167;BME280;9208;42.688;23.404;2023-06-10T07:28:54;95068.09;;;21.19;100.00
18167;BME280;9208;42.688;23.404;2023-06-10T07:31:19;95082.25;;;21.29;100.00
18167;BME280;9208;42.688;23.404;2023-06-10T07:33:46;95076.28;;;21.32;100.00
18167;BME280;9208;42.688;23.404;2023-06-10T07:36:12;95074.44;;;21.35;100.00
18167;BME280;9208;42.688;23.404;2023-06-10T07:38:37;95075.19;;;21.35;100.00
18167;BME280;9208;42.688;23.404;2023-06-10T07:41:02;95074.59;;;21.37;100.00
18167;BME280;9208;42.688;23.404;2023-06-10T07:43:28;95073.50;;;21.40;100.00
18167;BME280;9208;42.688;23.404;2023-06-10T07:45:53;95076.66;;;21.51;100.00
18167;BME280;9208;42.688;23.404;2023-06-10T07:48:19;95082.59;;;21.55;100.00
18167;BME280;9208;42.688;23.404;2023-06-10T07:50:44;95078.50;;;21.56;100.00
18167;BME280;9208;42.688;23.404;2023-06-10T07:53:10;95079.25;;;21.64;100.00
18167;BME280;9208;42.688;23.404;2023-06-10T07:55:35;95078.16;;;21.67;100.00
18167;BME280;9208;42.688;23.404;2023-06-10T07:58:01;95083.94;;;21.69;100.00
18167;BME280;9208;42.688;23.404;2023-06-10T08:00:26;95063.28;;;21.72;100.00
18167;BME280;9208;42.688;23.404;2023-06-10T08:02:52;95070.50;;;21.60;100.00
18167;BME280;9208;42.688;23.404;2023-06-10T08:05:17;95073.34;;;21.75;100.00
18167;BME280;9208;42.688;23.404;2023-06-10T08:07:44;95078.91;;;21.83;100.00
18167;BME280;9208;42.688;23.404;2023-06-10T08:10:10;95078.91;;;21.83;100.00
18167;BME280;9208;42.688;23.404;2023-06-10T08:12:36;95076.25;;;21.92;100.00
18167;BME280;9208;42.688;23.404;2023-06-10T08:15:01;95073.47;;;22.00;100.00
18167;BME280;9208;42.688;23.404;2023-06-10T08:17:29;95071.75;;;22.12;100.00
18167;BME280;9208;42.688;23.404;2023-06-10T08:19:55;95060.00;;;22.21;100.00
18167;BME280;9208;42.688;23.404;2023-06-10T08:22:20;95060.75;;;22.21;100.00
18167;BME280;9208;42.688;23.404;2023-06-10T08:24:48;95064.06;;;22.27;100.00
18167;BME280;9208;42.688;23.404;2023-06-10T08:27:13;95055.84;;;22.37;100.00
18167;BME280;9208;42.688;23.404;2023-06-10T08:29:39;95057.13;;;22.43;100.00
18167;BME280;9208;42.688;23.404;2023-06-10T08:32:05;95054.13;;;22.49;100.00
18167;BME280;9208;42.688;23.404;2023-06-10T08:34:33;95049.66;;;22.53;100.00
18167;BME280;9208;42.688;23.404;2023-06-10T08:36:59;95048.09;;;22.67;100.00
18167;BME280;9208;42.688;23.404;2023-06-10T08:39:25;95045.09;;;22.73;100.00
18167;BME280;9208;42.688;23.404;2023-06-10T08:44:54;95041.69;;;22.82;100.00
18167;BME280;9208;42.688;23.404;2023-06-10T08:47:22;95044.22;;;22.95;99.33
18167;BME280;9208;42.688;23.404;2023-06-10T08:49:48;95034.28;;;23.01;99.32
18167;BME280;9208;42.688;23.404;2023-06-10T08:52:16;95034.00;;;23.14;98.72
18167;BME280;9208;42.688;23.404;2023-06-10T08:55:04;95029.63;;;23.28;98.03
18167;BME280;9208;42.688;23.404;2023-06-10T08:57:31;95034.19;;;23.41;97.26
18167;BME280;9208;42.688;23.404;2023-06-10T08:59:57;95031.41;;;23.41;96.84
18167;BME280;9208;42.688;23.404;2023-06-10T09:02:27;95029.66;;;23.45;96.84
18167;BME280;9208;42.688;23.404;2023-06-10T09:04:53;95029.09;;;23.47;96.02
18167;BME280;9208;42.688;23.404;2023-06-10T09:07:21;95018.25;;;23.51;96.99
18167;BME280;9208;42.688;23.404;2023-06-10T09:09:48;95012.97;;;23.55;97.18
18167;BME280;9208;42.688;23.404;2023-06-10T09:12:14;95019.59;;;23.67;95.94
18167;BME280;9208;42.688;23.404;2023-06-10T09:14:43;95025.13;;;23.74;93.92
18167;BME280;9208;42.688;23.404;2023-06-10T09:17:09;95024.22;;;23.89;92.16
18167;BME280;9208;42.688;23.404;2023-06-10T09:19:35;95026.47;;;24.07;90.41
18167;BME280;9208;42.688;23.404;2023-06-10T09:22:02;95031.66;;;24.11;88.79
18167;BME280;9208;42.688;23.404;2023-06-10T09:24:27;95016.34;;;24.12;90.35
18167;BME280;9208;42.688;23.404;2023-06-10T09:27:04;95017.63;;;24.28;88.93
18167;BME280;9208;42.688;23.404;2023-06-10T09:29:30;95030.41;;;24.38;87.70
18167;BME280;9208;42.688;23.404;2023-06-10T09:31:55;95032.78;;;24.42;86.77
18167;BME280;9208;42.688;23.404;2023-06-10T09:34:27;95026.19;;;24.47;87.01
18167;BME280;9208;42.688;23.404;2023-06-10T09:36:53;95025.34;;;24.54;86.89
18167;BME280;9208;42.688;23.404;2023-06-10T09:39:19;95024.53;;;24.61;87.40
18167;BME280;9208;42.688;23.404;2023-06-10T09:41:46;95018.97;;;24.70;87.57
18167;BME280;9208;42.688;23.404;2023-06-10T09:44:17;95005.13;;;24.72;88.09
18167;BME280;9208;42.688;23.404;2023-06-10T09:46:45;95011.06;;;24.76;87.38
18167;BME280;9208;42.688;23.404;2023-06-10T09:49:11;95015.47;;;24.79;87.09
18167;BME280;9208;42.688;23.404;2023-06-10T09:51:36;95007.72;;;24.87;87.70
18167;BME280;9208;42.688;23.404;2023-06-10T09:54:03;94988.91;;;24.80;89.08
18167;BME280;9208;42.688;23.404;2023-06-10T09:56:35;94991.25;;;24.74;89.14
18167;BME280;9208;42.688;23.404;2023-06-10T09:59:02;94986.13;;;24.80;89.23
18167;BME280;9208;42.688;23.404;2023-06-10T10:01:27;94987.97;;;24.95;89.00
18167;BME280;9208;42.688;23.404;2023-06-10T10:03:53;94980.94;;;25.03;88.44
18167;BME280;9208;42.688;23.404;2023-06-10T10:06:19;94987.63;;;25.17;87.45
18167;BME280;9208;42.688;23.404;2023-06-10T10:08:48;94993.28;;;25.27;85.64
18167;BME280;9208;42.688;23.404;2023-06-10T10:11:17;95004.81;;;25.31;84.46
18167;BME280;9208;42.688;23.404;2023-06-10T10:13:45;95001.75;;;25.36;84.63
18167;BME280;9208;42.688;23.404;2023-06-10T10:16:16;95002.19;;;25.42;83.77
18167;BME280;9208;42.688;23.404;2023-06-10T10:18:49;94985.75;;;25.29;84.18
18167;BME280;9208;42.688;23.404;2023-06-10T10:21:20;94991.53;;;25.31;83.39
18167;BME280;9208;42.688;23.404;2023-06-10T10:26:21;95025.41;;;25.16;78.98
18167;BME280;9208;42.688;23.404;2023-06-10T10:29:11;95015.69;;;25.17;78.87
18167;BME280;9208;42.688;23.404;2023-06-10T10:31:41;95018.03;;;25.21;78.53
18167;BME280;9208;42.688;23.404;2023-06-10T10:34:12;94987.75;;;25.19;80.96
18167;BME280;9208;42.688;23.404;2023-06-10T10:36:38;94983.63;;;25.20;81.09
18167;BME280;9208;42.688;23.404;2023-06-10T10:39:05;94982.91;;;25.20;81.21
18167;BME280;9208;42.688;23.404;2023-06-10T10:41:31;94973.31;;;25.23;81.10
18167;BME280;9208;42.688;23.404;2023-06-10T10:43:57;94979.53;;;25.21;81.17
18167;BME280;9208;42.688;23.404;2023-06-10T10:46:24;94981.56;;;25.21;80.97
18167;BME280;9208;42.688;23.404;2023-06-10T10:48:53;94984.81;;;25.17;79.93
18167;BME280;9208;42.688;23.404;2023-06-10T10:51:20;94984.97;;;25.19;79.56
18167;BME280;9208;42.688;23.404;2023-06-10T10:54:12;94975.88;;;25.28;79.79
18167;BME280;9208;42.688;23.404;2023-06-10T10:56:38;94974.28;;;25.44;80.01
18167;BME280;9208;42.688;23.404;2023-06-10T10:59:07;94977.84;;;25.54;79.00
18167;BME280;9208;42.688;23.404;2023-06-10T11:01:42;94977.44;;;25.67;79.16
18167;BME280;9208;42.688;23.404;2023-06-10T11:04:11;94977.56;;;25.69;78.70
18167;BME280;9208;42.688;23.404;2023-06-10T11:06:37;94986.59;;;25.77;77.80
18167;BME280;9208;42.688;23.404;2023-06-10T11:09:26;94979.97;;;25.73;78.42
18167;BME280;9208;42.688;23.404;2023-06-10T11:11:52;94971.09;;;25.77;78.32
18167;BME280;9208;42.688;23.404;2023-06-10T11:14:30;94962.66;;;25.77;78.60
18167;BME280;9208;42.688;23.404;2023-06-10T11:16:58;94967.69;;;25.68;77.92
18167;BME280;9208;42.688;23.404;2023-06-10T11:19:35;94958.94;;;25.64;77.49
18167;BME280;9208;42.688;23.404;2023-06-10T11:22:07;94959.25;;;25.68;77.50
18167;BME280;9208;42.688;23.404;2023-06-10T11:24:35;94962.50;;;25.74;77.57
18167;BME280;9208;42.688;23.404;2023-06-10T11:27:20;94937.97;;;25.75;77.94
18167;BME280;9208;42.688;23.404;2023-06-10T11:30:20;94949.22;;;25.75;77.69
18167;BME280;9208;42.688;23.404;2023-06-10T11:32:50;94941.38;;;25.73;77.38
18167;BME280;9208;42.688;23.404;2023-06-10T11:35:18;94957.06;;;25.77;76.13
18167;BME280;9208;42.688;23.404;2023-06-10T11:37:43;94953.97;;;25.82;75.14
18167;BME280;9208;42.688;23.404;2023-06-10T11:40:10;94982.06;;;26.01;72.51
18167;BME280;9208;42.688;23.404;2023-06-10T11:42:40;94995.22;;;26.08;71.58
18167;BME280;9208;42.688;23.404;2023-06-10T11:45:06;94997.59;;;26.12;71.41
18167;BME280;9208;42.688;23.404;2023-06-10T11:47:33;95007.66;;;26.05;69.78
18167;BME280;9208;42.688;23.404;2023-06-10T11:50:02;94987.25;;;26.14;70.80
18167;BME280;9208;42.688;23.404;2023-06-10T11:52:31;95015.03;;;26.20;67.35
18167;BME280;9208;42.688;23.404;2023-06-10T11:55:05;95037.25;;;26.16;65.74
18167;BME280;9208;42.688;23.404;2023-06-10T11:57:34;95033.69;;;26.25;65.35
18167;BME280;9208;42.688;23.404;2023-06-10T12:00:09;95027.16;;;26.32;65.75
18167;BME280;9208;42.688;23.404;2023-06-10T12:02:34;95029.06;;;26.48;65.45
18167;BME280;9208;42.688;23.404;2023-06-10T12:05:18;95037.34;;;26.56;64.70
18167;BME280;9208;42.688;23.404;2023-06-10T12:07:44;95013.41;;;26.64;65.77
18167;BME280;9208;42.688;23.404;2023-06-10T12:10:09;95016.81;;;26.72;65.46
18167;BME280;9208;42.688;23.404;2023-06-10T12:12:35;95022.09;;;26.78;64.78
18167;BME280;9208;42.688;23.404;2023-06-10T12:15:02;95017.97;;;26.79;65.88
18167;BME280;9208;42.688;23.404;2023-06-10T12:19:55;95025.50;;;26.86;64.20
18167;BME280;9208;42.688;23.404;2023-06-10T12:22:21;95023.09;;;26.92;64.21
18167;BME280;9208;42.688;23.404;2023-06-10T12:24:59;95027.25;;;26.91;62.90
18167;BME280;9208;42.688;23.404;2023-06-10T12:27:28;95035.97;;;26.95;62.39
18167;BME280;9208;42.688;23.404;2023-06-10T12:29:55;95062.78;;;26.96;59.94
18167;BME280;9208;42.688;23.404;2023-06-10T12:32:22;95051.22;;;27.01;60.52
18167;BME280;9208;42.688;23.404;2023-06-10T12:35:05;95058.00;;;27.08;59.42
18167;BME280;9208;42.688;23.404;2023-06-10T12:37:30;95084.09;;;27.08;57.28
18167;BME280;9208;42.688;23.404;2023-06-10T12:40:00;95070.91;;;27.11;57.45
18167;BME280;9208;42.688;23.404;2023-06-10T12:42:26;95062.47;;;27.11;57.22
18167;BME280;9208;42.688;23.404;2023-06-10T12:44:55;95056.06;;;27.10;57.24
18167;BME280;9208;42.688;23.404;2023-06-10T12:47:35;95058.59;;;27.06;57.15
18167;BME280;9208;42.688;23.404;2023-06-10T12:50:03;95047.53;;;26.99;57.24
18167;BME280;9208;42.688;23.404;2023-06-10T12:52:29;95045.31;;;26.97;57.23
18167;BME280;9208;42.688;23.404;2023-06-10T12:54:55;95048.69;;;26.96;57.80
18167;BME280;9208;42.688;23.404;2023-06-10T12:57:22;95052.00;;;26.83;57.13
18167;BME280;9208;42.688;23.404;2023-06-10T12:59:47;95048.44;;;26.82;57.19
18167;BME280;9208;42.688;23.404;2023-06-10T13:02:18;95044.31;;;26.74;57.26
18167;BME280;9208;42.688;23.404;2023-06-10T13:04:45;95029.94;;;26.79;58.39
18167;BME280;9208;42.688;23.404;2023-06-10T13:07:12;95018.69;;;26.89;59.04